sensor_id;sensor_type;location;lat;lon;timestamp;P1;durP1;ratioP1;P2;durP2;ratioP2
82296;SDS011;71899;51.992;8.648;2023-12-20T00:00:46;35.13;;;13.02;;
82296;SDS011;71899;51.992;8.648;2023-12-20T00:03:12;36.25;;;13.10;;
82296;SDS011;71899;51.992;8.648;2023-12-20T00:05:37;35.83;;;13.25;;
82296;SDS011;71899;51.992;8.648;2023-12-20T00:08:06;42.92;;;13.02;;
82296;SDS011;71899;51.992;8.648;2023-12-20T00:10:31;34.10;;;12.32;;
82296;SDS011;71899;51.992;8.648;2023-12-20T00:12:56;41.60;;;13.48;;
82296;SDS011;71899;51.992;8.648;2023-12-20T00:15:22;30.88;;;12.05;;
82296;SDS011;71899;51.992;8.648;2023-12-20T00:17:47;36.83;;;11.93;;
82296;SDS011;71899;51.992;8.648;2023-12-20T00:20:12;34.28;;;12.75;;
82296;SDS011;71899;51.992;8.648;2023-12-20T00:22:37;35.45;;;12.85;;
82296;SDS011;71899;51.992;8.648;2023-12-20T00:25:03;29.55;;;12.15;;
82296;SDS011;71899;51.992;8.648;2023-12-20T00:27:28;32.03;;;11.70;;
82296;SDS011;71899;51.992;8.648;2023-12-20T00:29:54;32.00;;;11.75;;
82296;SDS011;71899;51.992;8.648;2023-12-20T00:32:20;40.17;;;12.95;;
82296;SDS011;71899;51.992;8.648;2023-12-20T00:34:45;34.58;;;11.50;;
82296;SDS011;71899;51.992;8.648;2023-12-20T00:37:10;33.58;;;10.95;;
82296;SDS011;71899;51.992;8.648;2023-12-20T00:39:36;32.33;;;9.70;;
82296;SDS011;71899;51.992;8.648;2023-12-20T00:42:01;31.63;;;9.13;;
82296;SDS011;71899;51.992;8.648;2023-12-20T00:44:26;32.58;;;10.02;;
82296;SDS011;71899;51.992;8.648;2023-12-20T00:46:52;29.95;;;9.82;;
82296;SDS011;71899;51.992;8.648;2023-12-20T00:49:17;26.23;;;10.60;;
82296;SDS011;71899;51.992;8.648;2023-12-20T00:51:42;39.67;;;10.85;;
82296;SDS011;71899;51.992;8.648;2023-12-20T00:54:08;30.63;;;10.88;;
82296;SDS011;71899;51.992;8.648;2023-12-20T00:56:34;35.92;;;11.32;;
82296;SDS011;71899;51.992;8.648;2023-12-20T00:58:59;29.88;;;10.20;;
82296;SDS011;71899;51.992;8.648;2023-12-20T01:01:24;33.92;;;11.35;;
82296;SDS011;71899;51.992;8.648;2023-12-20T01:03:50;30.40;;;10.40;;
82296;SDS011;71899;51.992;8.648;2023-12-20T01:06:16;35.55;;;11.88;;
82296;SDS011;71899;51.992;8.648;2023-12-20T01:08:42;22.10;;;8.23;;
82296;SDS011;71899;51.992;8.648;2023-12-20T01:11:07;24.75;;;8.55;;
82296;SDS011;71899;51.992;8.648;2023-12-20T01:13:32;17.15;;;7.25;;
82296;SDS011;71899;51.992;8.648;2023-12-20T01:15:58;16.58;;;8.40;;
82296;SDS011;71899;51.992;8.648;2023-12-20T01:18:23;15.57;;;6.85;;
82296;SDS011;71899;51.992;8.648;2023-12-20T01:20:48;24.65;;;7.30;;
82296;SDS011;71899;51.992;8.648;2023-12-20T01:23:14;23.05;;;9.50;;
82296;SDS011;71899;51.992;8.648;2023-12-20T01:25:39;16.00;;;7.68;;
82296;SDS011;71899;51.992;8.648;2023-12-20T01:28:04;21.27;;;7.63;;
82296;SDS011;71899;51.992;8.648;2023-12-20T01:30:30;20.00;;;7.65;;
82296;SDS011;71899;51.992;8.648;2023-12-20T01:32:55;14.65;;;6.95;;
82296;SDS011;71899;51.992;8.648;2023-12-20T01:35:21;12.60;;;7.65;;
82296;SDS011;71899;51.992;8.648;2023-12-20T01:37:46;14.05;;;6.75;;
82296;SDS011;71899;51.992;8.648;2023-12-20T01:40:12;17.58;;;5.82;;
82296;SDS011;71899;51.992;8.648;2023-12-20T01:42:37;12.90;;;5.32;;
82296;SDS011;71899;51.992;8.648;2023-12-20T01:45:02;22.10;;;8.82;;
82296;SDS011;71899;51.992;8.648;2023-12-20T01:47:28;10.32;;;5.60;;
82296;SDS011;71899;51.992;8.648;2023-12-20T01:49:53;11.70;;;6.15;;
82296;SDS011;71899;51.992;8.648;2023-12-20T01:52:21;17.98;;;6.93;;
82296;SDS011;71899;51.992;8.648;2023-12-20T01:54:48;12.88;;;5.05;;
82296;SDS011;71899;51.992;8.648;2023-12-20T01:57:13;12.23;;;6.13;;
82296;SDS011;71899;51.992;8.648;2023-12-20T01:59:39;16.30;;;5.50;;
82296;SDS011;71899;51.992;8.648;2023-12-20T02:02:05;15.27;;;5.32;;
82296;SDS011;71899;51.992;8.648;2023-12-20T02:04:31;21.65;;;6.75;;
82296;SDS011;71899;51.992;8.648;2023-12-20T02:06:56;14.35;;;5.35;;
82296;SDS011;71899;51.992;8.648;2023-12-20T02:09:23;17.52;;;4.88;;
82296;SDS011;71899;51.992;8.648;2023-12-20T02:11:49;12.80;;;4.90;;
82296;SDS011;71899;51.992;8.648;2023-12-20T02:14:14;18.30;;;5.65;;
82296;SDS011;71899;51.992;8.648;2023-12-20T02:16:40;16.92;;;6.32;;
82296;SDS011;71899;51.992;8.648;2023-12-20T02:19:05;12.75;;;4.40;;
82296;SDS011;71899;51.992;8.648;2023-12-20T02:21:35;10.45;;;4.80;;
82296;SDS011;71899;51.992;8.648;2023-12-20T02:24:01;9.52;;;4.05;;
82296;SDS011;71899;51.992;8.648;2023-12-20T02:26:26;11.45;;;4.13;;
82296;SDS011;71899;51.992;8.648;2023-12-20T02:28:51;11.30;;;5.00;;
82296;SDS011;71899;51.992;8.648;2023-12-20T02:31:20;15.80;;;5.63;;
82296;SDS011;71899;51.992;8.648;2023-12-20T02:33:46;14.98;;;4.93;;
82296;SDS011;71899;51.992;8.648;2023-12-20T02:36:11;11.55;;;4.63;;
82296;SDS011;71899;51.992;8.648;2023-12-20T02:38:36;10.13;;;4.03;;
82296;SDS011;71899;51.992;8.648;2023-12-20T02:41:02;13.60;;;6.95;;
82296;SDS011;71899;51.992;8.648;2023-12-20T02:43:28;11.85;;;5.72;;
82296;SDS011;71899;51.992;8.648;2023-12-20T02:45:53;13.60;;;5.63;;
82296;SDS011;71899;51.992;8.648;2023-12-20T02:48:18;12.10;;;4.93;;
82296;SDS011;71899;51.992;8.648;2023-12-20T02:50:45;17.58;;;4.43;;
82296;SDS011;71899;51.992;8.648;2023-12-20T02:53:11;9.60;;;5.47;;
82296;SDS011;71899;51.992;8.648;2023-12-20T02:55:36;15.65;;;6.93;;
82296;SDS011;71899;51.992;8.648;2023-12-20T02:58:02;19.30;;;6.05;;
82296;SDS011;71899;51.992;8.648;2023-12-20T03:00:27;15.80;;;6.20;;
82296;SDS011;71899;51.992;8.648;2023-12-20T03:02:52;17.55;;;6.85;;
82296;SDS011;71899;51.992;8.648;2023-12-20T03:05:18;25.30;;;7.22;;
82296;SDS011;71899;51.992;8.648;2023-12-20T03:07:43;14.95;;;6.32;;
82296;SDS011;71899;51.992;8.648;2023-12-20T03:10:08;15.65;;;5.82;;
82296;SDS011;71899;51.992;8.648;2023-12-20T03:12:34;17.25;;;5.80;;
82296;SDS011;71899;51.992;8.648;2023-12-20T03:15:00;20.27;;;7.13;;
82296;SDS011;71899;51.992;8.648;2023-12-20T03:17:26;26.33;;;7.85;;
82296;SDS011;71899;51.992;8.648;2023-12-20T03:19:51;20.05;;;8.65;;
82296;SDS011;71899;51.992;8.648;2023-12-20T03:22:16;22.45;;;7.72;;
82296;SDS011;71899;51.992;8.648;2023-12-20T03:24:42;19.15;;;8.43;;
82296;SDS011;71899;51.992;8.648;2023-12-20T03:27:07;24.20;;;8.70;;
82296;SDS011;71899;51.992;8.648;2023-12-20T03:29:32;40.25;;;12.60;;
82296;SDS011;71899;51.992;8.648;2023-12-20T03:31:58;35.67;;;12.38;;
82296;SDS011;71899;51.992;8.648;2023-12-20T03:34:23;29.33;;;10.02;;
82296;SDS011;71899;51.992;8.648;2023-12-20T03:36:48;33.90;;;12.52;;
82296;SDS011;71899;51.992;8.648;2023-12-20T03:39:14;25.20;;;11.90;;
82296;SDS011;71899;51.992;8.648;2023-12-20T03:41:39;24.58;;;11.20;;
82296;SDS011;71899;51.992;8.648;2023-12-20T03:44:04;27.10;;;10.23;;
82296;SDS011;71899;51.992;8.648;2023-12-20T03:46:30;24.83;;;9.88;;
82296;SDS011;71899;51.992;8.648;2023-12-20T03:48:56;30.15;;;11.00;;
82296;SDS011;71899;51.992;8.648;2023-12-20T03:51:22;28.77;;;8.93;;
82296;SDS011;71899;51.992;8.648;2023-12-20T03:53:47;31.42;;;8.63;;
82296;SDS011;71899;51.992;8.648;2023-12-20T03:56:13;17.80;;;7.72;;
82296;SDS011;71899;51.992;8.648;2023-12-20T03:58:38;18.20;;;7.45;;
82296;SDS011;71899;51.992;8.648;2023-12-20T04:01:03;28.98;;;10.52;;
82296;SDS011;71899;51.992;8.648;2023-12-20T04:03:35;17.13;;;8.60;;
82296;SDS011;71899;51.992;8.648;2023-12-20T04:06:00;20.92;;;9.02;;
82296;SDS011;71899;51.992;8.648;2023-12-20T04:08:25;19.50;;;8.85;;
82296;SDS011;71899;51.992;8.648;2023-12-20T04:10:51;21.23;;;7.85;;
82296;SDS011;71899;51.992;8.648;2023-12-20T04:13:16;20.80;;;9.30;;
82296;SDS011;71899;51.992;8.648;2023-12-20T04:15:41;24.33;;;9.93;;
82296;SDS011;71899;51.992;8.648;2023-12-20T04:18:07;25.30;;;9.07;;
82296;SDS011;71899;51.992;8.648;2023-12-20T04:20:32;24.83;;;9.45;;
82296;SDS011;71899;51.992;8.648;2023-12-20T04:22:57;21.88;;;9.43;;
82296;SDS011;71899;51.992;8.648;2023-12-20T04:25:22;25.85;;;8.68;;
82296;SDS011;71899;51.992;8.648;2023-12-20T04:27:48;19.77;;;9.57;;
82296;SDS011;71899;51.992;8.648;2023-12-20T04:30:13;15.73;;;10.13;;
82296;SDS011;71899;51.992;8.648;2023-12-20T04:32:38;28.23;;;8.80;;
82296;SDS011;71899;51.992;8.648;2023-12-20T04:35:04;27.20;;;8.63;;
82296;SDS011;71899;51.992;8.648;2023-12-20T04:37:29;17.02;;;9.35;;
82296;SDS011;71899;51.992;8.648;2023-12-20T04:39:55;26.30;;;9.02;;
82296;SDS011;71899;51.992;8.648;2023-12-20T04:42:20;21.65;;;8.52;;
82296;SDS011;71899;51.992;8.648;2023-12-20T04:44:45;29.63;;;8.40;;
82296;SDS011;71899;51.992;8.648;2023-12-20T04:47:11;16.58;;;6.40;;
82296;SDS011;71899;51.992;8.648;2023-12-20T04:49:36;22.55;;;8.55;;
82296;SDS011;71899;51.992;8.648;2023-12-20T04:52:01;25.48;;;8.80;;
82296;SDS011;71899;51.992;8.648;2023-12-20T04:54:27;17.42;;;7.75;;
82296;SDS011;71899;51.992;8.648;2023-12-20T04:56:52;26.38;;;8.02;;
82296;SDS011;71899;51.992;8.648;2023-12-20T04:59:17;18.88;;;6.53;;
82296;SDS011;71899;51.992;8.648;2023-12-20T05:01:43;20.38;;;6.78;;
82296;SDS011;71899;51.992;8.648;2023-12-20T05:04:08;18.48;;;7.13;;
82296;SDS011;71899;51.992;8.648;2023-12-20T05:06:33;31.23;;;8.90;;
82296;SDS011;71899;51.992;8.648;2023-12-20T05:08:58;19.40;;;8.77;;
82296;SDS011;71899;51.992;8.648;2023-12-20T05:11:24;19.58;;;7.07;;
82296;SDS011;71899;51.992;8.648;2023-12-20T05:13:49;21.13;;;7.22;;
82296;SDS011;71899;51.992;8.648;2023-12-20T05:16:14;22.00;;;6.93;;
82296;SDS011;71899;51.992;8.648;2023-12-20T05:18:42;21.20;;;7.47;;
82296;SDS011;71899;51.992;8.648;2023-12-20T05:21:08;19.58;;;7.03;;
82296;SDS011;71899;51.992;8.648;2023-12-20T05:23:33;23.98;;;8.07;;
82296;SDS011;71899;51.992;8.648;2023-12-20T05:25:59;27.55;;;6.70;;
82296;SDS011;71899;51.992;8.648;2023-12-20T05:28:24;24.08;;;8.68;;
82296;SDS011;71899;51.992;8.648;2023-12-20T05:30:50;25.73;;;8.98;;
82296;SDS011;71899;51.992;8.648;2023-12-20T05:33:16;17.38;;;6.63;;
82296;SDS011;71899;51.992;8.648;2023-12-20T05:35:41;16.13;;;7.43;;
82296;SDS011;71899;51.992;8.648;2023-12-20T05:38:06;17.20;;;9.00;;
82296;SDS011;71899;51.992;8.648;2023-12-20T05:40:32;15.35;;;7.55;;
82296;SDS011;71899;51.992;8.648;2023-12-20T05:42:57;18.67;;;6.80;;
82296;SDS011;71899;51.992;8.648;2023-12-20T05:45:22;21.08;;;7.90;;
82296;SDS011;71899;51.992;8.648;2023-12-20T05:47:48;16.23;;;7.95;;
82296;SDS011;71899;51.992;8.648;2023-12-20T05:50:13;19.23;;;6.57;;
82296;SDS011;71899;51.992;8.648;2023-12-20T05:52:38;27.15;;;7.75;;
82296;SDS011;71899;51.992;8.648;2023-12-20T05:55:04;12.10;;;6.47;;
82296;SDS011;71899;51.992;8.648;2023-12-20T05:57:29;20.73;;;7.43;;
82296;SDS011;71899;51.992;8.648;2023-12-20T05:59:54;17.67;;;6.60;;
82296;SDS011;71899;51.992;8.648;2023-12-20T06:02:20;20.42;;;7.70;;
82296;SDS011;71899;51.992;8.648;2023-12-20T06:04:45;19.30;;;7.43;;
82296;SDS011;71899;51.992;8.648;2023-12-20T06:07:11;22.85;;;7.82;;
82296;SDS011;71899;51.992;8.648;2023-12-20T06:09:37;30.98;;;8.38;;
82296;SDS011;71899;51.992;8.648;2023-12-20T06:12:03;26.50;;;8.77;;
82296;SDS011;71899;51.992;8.648;2023-12-20T06:14:29;26.70;;;8.32;;
82296;SDS011;71899;51.992;8.648;2023-12-20T06:16:55;22.48;;;8.43;;
82296;SDS011;71899;51.992;8.648;2023-12-20T06:19:21;19.08;;;8.35;;
82296;SDS011;71899;51.992;8.648;2023-12-20T06:21:46;22.73;;;8.07;;
82296;SDS011;71899;51.992;8.648;2023-12-20T06:24:12;22.35;;;7.22;;
82296;SDS011;71899;51.992;8.648;2023-12-20T06:26:37;27.10;;;9.07;;
82296;SDS011;71899;51.992;8.648;2023-12-20T06:29:02;27.83;;;9.13;;
82296;SDS011;71899;51.992;8.648;2023-12-20T06:31:28;28.00;;;8.65;;
82296;SDS011;71899;51.992;8.648;2023-12-20T06:33:53;21.55;;;8.52;;
82296;SDS011;71899;51.992;8.648;2023-12-20T06:36:22;22.40;;;7.50;;
82296;SDS011;71899;51.992;8.648;2023-12-20T06:38:48;21.05;;;8.15;;
82296;SDS011;71899;51.992;8.648;2023-12-20T06:41:13;20.08;;;8.27;;
82296;SDS011;71899;51.992;8.648;2023-12-20T06:43:39;15.82;;;6.88;;
82296;SDS011;71899;51.992;8.648;2023-12-20T06:46:06;24.75;;;8.85;;
82296;SDS011;71899;51.992;8.648;2023-12-20T06:48:31;24.08;;;8.48;;
82296;SDS011;71899;51.992;8.648;2023-12-20T06:50:57;21.35;;;9.07;;
82296;SDS011;71899;51.992;8.648;2023-12-20T06:53:24;23.80;;;9.27;;
82296;SDS011;71899;51.992;8.648;2023-12-20T06:55:49;28.92;;;8.65;;
82296;SDS011;71899;51.992;8.648;2023-12-20T06:58:15;18.15;;;7.55;;
82296;SDS011;71899;51.992;8.648;2023-12-20T07:00:40;27.17;;;8.95;;
82296;SDS011;71899;51.992;8.648;2023-12-20T07:03:05;20.67;;;8.00;;
82296;SDS011;71899;51.992;8.648;2023-12-20T07:05:31;21.20;;;7.30;;
82296;SDS011;71899;51.992;8.648;2023-12-20T07:07:56;22.50;;;8.55;;
82296;SDS011;71899;51.992;8.648;2023-12-20T07:10:21;27.13;;;8.90;;
82296;SDS011;71899;51.992;8.648;2023-12-20T07:12:47;16.25;;;7.60;;
82296;SDS011;71899;51.992;8.648;2023-12-20T07:15:13;22.55;;;8.20;;
82296;SDS011;71899;51.992;8.648;2023-12-20T07:17:39;19.75;;;8.70;;
82296;SDS011;71899;51.992;8.648;2023-12-20T07:20:04;26.10;;;7.45;;
82296;SDS011;71899;51.992;8.648;2023-12-20T07:22:31;21.85;;;8.95;;
82296;SDS011;71899;51.992;8.648;2023-12-20T07:24:57;20.30;;;7.72;;
82296;SDS011;71899;51.992;8.648;2023-12-20T07:27:23;27.60;;;8.35;;
82296;SDS011;71899;51.992;8.648;2023-12-20T07:29:49;27.25;;;9.48;;
82296;SDS011;71899;51.992;8.648;2023-12-20T07:32:14;19.48;;;8.05;;
82296;SDS011;71899;51.992;8.648;2023-12-20T07:34:39;21.88;;;7.32;;
82296;SDS011;71899;51.992;8.648;2023-12-20T07:37:04;18.67;;;7.78;;
82296;SDS011;71899;51.992;8.648;2023-12-20T07:39:30;25.48;;;8.32;;
82296;SDS011;71899;51.992;8.648;2023-12-20T07:41:55;24.10;;;7.05;;
82296;SDS011;71899;51.992;8.648;2023-12-20T07:44:20;32.88;;;9.82;;
82296;SDS011;71899;51.992;8.648;2023-12-20T07:46:46;17.85;;;7.20;;
82296;SDS011;71899;51.992;8.648;2023-12-20T07:49:11;24.80;;;7.85;;
82296;SDS011;71899;51.992;8.648;2023-12-20T07:51:37;20.00;;;7.78;;
82296;SDS011;71899;51.992;8.648;2023-12-20T07:54:02;25.45;;;8.50;;
82296;SDS011;71899;51.992;8.648;2023-12-20T07:56:28;22.15;;;6.32;;
82296;SDS011;71899;51.992;8.648;2023-12-20T07:58:53;22.92;;;8.32;;
82296;SDS011;71899;51.992;8.648;2023-12-20T08:01:19;34.60;;;6.32;;
82296;SDS011;71899;51.992;8.648;2023-12-20T08:03:45;17.25;;;5.68;;
82296;SDS011;71899;51.992;8.648;2023-12-20T08:06:10;18.27;;;5.50;;
82296;SDS011;71899;51.992;8.648;2023-12-20T08:08:35;20.48;;;5.75;;
82296;SDS011;71899;51.992;8.648;2023-12-20T08:11:00;20.92;;;7.18;;
82296;SDS011;71899;51.992;8.648;2023-12-20T08:13:27;17.02;;;5.20;;
82296;SDS011;71899;51.992;8.648;2023-12-20T08:15:53;23.08;;;5.85;;
82296;SDS011;71899;51.992;8.648;2023-12-20T08:18:19;20.45;;;6.45;;
82296;SDS011;71899;51.992;8.648;2023-12-20T08:20:44;19.00;;;8.02;;
82296;SDS011;71899;51.992;8.648;2023-12-20T08:23:09;15.80;;;6.40;;
82296;SDS011;71899;51.992;8.648;2023-12-20T08:25:34;16.48;;;6.03;;
82296;SDS011;71899;51.992;8.648;2023-12-20T08:28:01;13.32;;;4.28;;
82296;SDS011;71899;51.992;8.648;2023-12-20T08:30:27;20.02;;;5.32;;
82296;SDS011;71899;51.992;8.648;2023-12-20T08:32:52;19.42;;;6.03;;
82296;SDS011;71899;51.992;8.648;2023-12-20T08:35:18;21.15;;;5.35;;
82296;SDS011;71899;51.992;8.648;2023-12-20T08:37:43;18.73;;;5.97;;
82296;SDS011;71899;51.992;8.648;2023-12-20T08:40:09;14.55;;;5.18;;
82296;SDS011;71899;51.992;8.648;2023-12-20T08:42:35;16.70;;;5.25;;
82296;SDS011;71899;51.992;8.648;2023-12-20T08:45:02;17.23;;;6.57;;
82296;SDS011;71899;51.992;8.648;2023-12-20T08:47:29;11.52;;;4.75;;
82296;SDS011;71899;51.992;8.648;2023-12-20T08:49:55;17.88;;;7.13;;
82296;SDS011;71899;51.992;8.648;2023-12-20T08:52:24;14.90;;;6.93;;
82296;SDS011;71899;51.992;8.648;2023-12-20T08:54:49;17.50;;;6.10;;
82296;SDS011;71899;51.992;8.648;2023-12-20T08:57:21;19.63;;;5.70;;
82296;SDS011;71899;51.992;8.648;2023-12-20T08:59:48;12.38;;;5.65;;
82296;SDS011;71899;51.992;8.648;2023-12-20T09:02:14;19.27;;;5.35;;
82296;SDS011;71899;51.992;8.648;2023-12-20T09:04:40;14.77;;;7.03;;
82296;SDS011;71899;51.992;8.648;2023-12-20T09:07:06;19.13;;;6.68;;
82296;SDS011;71899;51.992;8.648;2023-12-20T09:09:32;22.17;;;8.43;;
82296;SDS011;71899;51.992;8.648;2023-12-20T09:11:59;23.35;;;9.57;;
82296;SDS011;71899;51.992;8.648;2023-12-20T09:14:25;20.17;;;8.77;;
82296;SDS011;71899;51.992;8.648;2023-12-20T09:16:50;21.23;;;7.60;;
82296;SDS011;71899;51.992;8.648;2023-12-20T09:19:16;20.73;;;8.27;;
82296;SDS011;71899;51.992;8.648;2023-12-20T09:21:42;19.63;;;7.60;;
82296;SDS011;71899;51.992;8.648;2023-12-20T09:24:07;24.65;;;8.80;;
82296;SDS011;71899;51.992;8.648;2023-12-20T09:26:33;22.40;;;10.48;;
82296;SDS011;71899;51.992;8.648;2023-12-20T09:28:59;20.77;;;8.38;;
82296;SDS011;71899;51.992;8.648;2023-12-20T09:31:24;26.52;;;9.52;;
82296;SDS011;71899;51.992;8.648;2023-12-20T09:33:49;22.00;;;9.60;;
82296;SDS011;71899;51.992;8.648;2023-12-20T09:36:17;21.13;;;9.90;;
82296;SDS011;71899;51.992;8.648;2023-12-20T09:38:42;16.33;;;9.95;;
82296;SDS011;71899;51.992;8.648;2023-12-20T09:41:07;32.35;;;12.48;;
82296;SDS011;71899;51.992;8.648;2023-12-20T09:43:33;27.20;;;11.48;;
82296;SDS011;71899;51.992;8.648;2023-12-20T09:46:02;21.23;;;9.77;;
82296;SDS011;71899;51.992;8.648;2023-12-20T09:48:32;25.05;;;9.90;;
82296;SDS011;71899;51.992;8.648;2023-12-20T09:50:58;24.33;;;10.02;;
82296;SDS011;71899;51.992;8.648;2023-12-20T09:53:23;33.83;;;10.52;;
82296;SDS011;71899;51.992;8.648;2023-12-20T09:55:54;23.23;;;11.05;;
82296;SDS011;71899;51.992;8.648;2023-12-20T09:58:23;22.00;;;10.30;;
82296;SDS011;71899;51.992;8.648;2023-12-20T10:00:48;25.10;;;9.68;;
82296;SDS011;71899;51.992;8.648;2023-12-20T10:03:13;22.08;;;9.77;;
82296;SDS011;71899;51.992;8.648;2023-12-20T10:05:39;28.77;;;11.30;;
82296;SDS011;71899;51.992;8.648;2023-12-20T10:08:08;26.17;;;8.68;;
82296;SDS011;71899;51.992;8.648;2023-12-20T10:10:33;28.65;;;11.90;;
82296;SDS011;71899;51.992;8.648;2023-12-20T10:13:05;20.45;;;8.73;;
82296;SDS011;71899;51.992;8.648;2023-12-20T10:15:35;20.73;;;8.82;;
82296;SDS011;71899;51.992;8.648;2023-12-20T10:18:01;26.23;;;10.43;;
82296;SDS011;71899;51.992;8.648;2023-12-20T10:20:27;20.73;;;9.18;;
82296;SDS011;71899;51.992;8.648;2023-12-20T10:22:57;26.38;;;10.05;;
82296;SDS011;71899;51.992;8.648;2023-12-20T10:25:23;22.48;;;7.95;;
82296;SDS011;71899;51.992;8.648;2023-12-20T10:27:49;20.25;;;8.50;;
82296;SDS011;71899;51.992;8.648;2023-12-20T10:30:15;23.67;;;8.25;;
82296;SDS011;71899;51.992;8.648;2023-12-20T10:32:40;23.05;;;9.65;;
82296;SDS011;71899;51.992;8.648;2023-12-20T10:35:07;16.27;;;7.25;;
82296;SDS011;71899;51.992;8.648;2023-12-20T10:37:39;28.00;;;7.72;;
82296;SDS011;71899;51.992;8.648;2023-12-20T10:40:04;17.25;;;7.25;;
82296;SDS011;71899;51.992;8.648;2023-12-20T10:42:31;27.00;;;7.63;;
82296;SDS011;71899;51.992;8.648;2023-12-20T10:45:01;23.67;;;7.45;;
82296;SDS011;71899;51.992;8.648;2023-12-20T10:47:28;25.42;;;7.85;;
82296;SDS011;71899;51.992;8.648;2023-12-20T10:49:55;20.55;;;7.75;;
82296;SDS011;71899;51.992;8.648;2023-12-20T10:52:22;19.60;;;7.35;;
82296;SDS011;71899;51.992;8.648;2023-12-20T10:54:48;14.43;;;6.60;;
82296;SDS011;71899;51.992;8.648;2023-12-20T10:57:14;14.07;;;5.78;;
82296;SDS011;71899;51.992;8.648;2023-12-20T10:59:43;19.95;;;7.97;;
82296;SDS011;71899;51.992;8.648;2023-12-20T11:02:10;13.20;;;5.63;;
82296;SDS011;71899;51.992;8.648;2023-12-20T11:07:17;23.35;;;8.25;;
82296;SDS011;71899;51.992;8.648;2023-12-20T11:09:54;25.52;;;6.55;;
82296;SDS011;71899;51.992;8.648;2023-12-20T11:12:42;18.65;;;7.47;;
82296;SDS011;71899;51.992;8.648;2023-12-20T11:15:13;22.73;;;7.30;;
82296;SDS011;71899;51.992;8.648;2023-12-20T11:17:40;21.08;;;9.07;;
82296;SDS011;71899;51.992;8.648;2023-12-20T11:20:07;29.20;;;9.05;;
82296;SDS011;71899;51.992;8.648;2023-12-20T11:22:35;24.52;;;8.25;;
82296;SDS011;71899;51.992;8.648;2023-12-20T11:25:03;23.90;;;8.48;;
82296;SDS011;71899;51.992;8.648;2023-12-20T11:27:36;25.13;;;7.72;;
82296;SDS011;71899;51.992;8.648;2023-12-20T11:30:06;17.50;;;7.65;;
82296;SDS011;71899;51.992;8.648;2023-12-20T11:32:34;23.48;;;7.90;;
82296;SDS011;71899;51.992;8.648;2023-12-20T11:37:36;24.63;;;7.15;;
82296;SDS011;71899;51.992;8.648;2023-12-20T11:40:03;16.90;;;6.43;;
82296;SDS011;71899;51.992;8.648;2023-12-20T11:42:33;17.17;;;6.80;;
82296;SDS011;71899;51.992;8.648;2023-12-20T11:45:01;17.40;;;8.55;;
82296;SDS011;71899;51.992;8.648;2023-12-20T11:47:28;21.17;;;6.68;;
82296;SDS011;71899;51.992;8.648;2023-12-20T11:49:55;22.08;;;5.90;;
82296;SDS011;71899;51.992;8.648;2023-12-20T11:52:21;21.70;;;6.20;;
82296;SDS011;71899;51.992;8.648;2023-12-20T11:54:46;15.57;;;6.35;;
82296;SDS011;71899;51.992;8.648;2023-12-20T11:57:13;13.35;;;5.05;;
82296;SDS011;71899;51.992;8.648;2023-12-20T11:59:38;28.65;;;7.20;;
82296;SDS011;71899;51.992;8.648;2023-12-20T12:02:03;18.25;;;6.82;;
82296;SDS011;71899;51.992;8.648;2023-12-20T12:04:29;13.02;;;5.65;;
82296;SDS011;71899;51.992;8.648;2023-12-20T12:06:54;16.33;;;5.85;;
82296;SDS011;71899;51.992;8.648;2023-12-20T12:09:19;11.23;;;4.70;;
82296;SDS011;71899;51.992;8.648;2023-12-20T12:11:45;15.85;;;6.40;;
82296;SDS011;71899;51.992;8.648;2023-12-20T12:14:10;20.85;;;5.13;;
82296;SDS011;71899;51.992;8.648;2023-12-20T12:16:36;8.23;;;4.30;;
82296;SDS011;71899;51.992;8.648;2023-12-20T12:19:02;10.52;;;4.38;;
82296;SDS011;71899;51.992;8.648;2023-12-20T12:21:27;15.27;;;4.78;;
82296;SDS011;71899;51.992;8.648;2023-12-20T12:23:52;12.07;;;3.88;;
82296;SDS011;71899;51.992;8.648;2023-12-20T12:26:18;17.08;;;4.13;;
82296;SDS011;71899;51.992;8.648;2023-12-20T12:28:44;11.13;;;4.07;;
82296;SDS011;71899;51.992;8.648;2023-12-20T12:31:13;11.15;;;4.63;;
82296;SDS011;71899;51.992;8.648;2023-12-20T12:33:40;13.05;;;4.65;;
82296;SDS011;71899;51.992;8.648;2023-12-20T12:36:06;13.95;;;5.18;;
82296;SDS011;71899;51.992;8.648;2023-12-20T12:38:32;12.93;;;5.90;;
82296;SDS011;71899;51.992;8.648;2023-12-20T12:40:59;17.15;;;5.10;;
82296;SDS011;71899;51.992;8.648;2023-12-20T12:43:25;14.18;;;4.78;;
82296;SDS011;71899;51.992;8.648;2023-12-20T12:45:51;17.08;;;4.65;;
82296;SDS011;71899;51.992;8.648;2023-12-20T12:48:17;16.40;;;5.93;;
82296;SDS011;71899;51.992;8.648;2023-12-20T12:50:42;12.90;;;5.18;;
82296;SDS011;71899;51.992;8.648;2023-12-20T12:53:08;13.70;;;4.95;;
82296;SDS011;71899;51.992;8.648;2023-12-20T12:55:34;19.15;;;5.55;;
82296;SDS011;71899;51.992;8.648;2023-12-20T12:58:00;15.25;;;5.38;;
82296;SDS011;71899;51.992;8.648;2023-12-20T13:00:27;11.43;;;3.78;;
82296;SDS011;71899;51.992;8.648;2023-12-20T13:02:53;10.25;;;4.18;;
82296;SDS011;71899;51.992;8.648;2023-12-20T13:05:18;11.65;;;5.82;;
82296;SDS011;71899;51.992;8.648;2023-12-20T13:07:43;13.82;;;5.35;;
82296;SDS011;71899;51.992;8.648;2023-12-20T13:10:10;40.40;;;7.43;;
82296;SDS011;71899;51.992;8.648;2023-12-20T13:12:36;19.65;;;5.75;;
82296;SDS011;71899;51.992;8.648;2023-12-20T13:15:03;23.63;;;7.38;;
82296;SDS011;71899;51.992;8.648;2023-12-20T13:17:29;21.27;;;6.13;;
82296;SDS011;71899;51.992;8.648;2023-12-20T13:19:54;25.75;;;7.53;;
82296;SDS011;71899;51.992;8.648;2023-12-20T13:22:20;23.60;;;6.38;;
82296;SDS011;71899;51.992;8.648;2023-12-20T13:24:45;12.45;;;5.25;;
82296;SDS011;71899;51.992;8.648;2023-12-20T13:27:10;20.30;;;5.93;;
82296;SDS011;71899;51.992;8.648;2023-12-20T13:29:36;14.50;;;5.10;;
82296;SDS011;71899;51.992;8.648;2023-12-20T13:32:01;5.32;;;2.38;;
82296;SDS011;71899;51.992;8.648;2023-12-20T13:34:28;9.80;;;3.03;;
82296;SDS011;71899;51.992;8.648;2023-12-20T13:36:54;8.10;;;1.95;;
82296;SDS011;71899;51.992;8.648;2023-12-20T13:39:19;14.45;;;3.22;;
82296;SDS011;71899;51.992;8.648;2023-12-20T13:41:45;12.23;;;2.60;;
82296;SDS011;71899;51.992;8.648;2023-12-20T13:44:10;8.05;;;2.88;;
82296;SDS011;71899;51.992;8.648;2023-12-20T13:46:36;15.05;;;3.95;;
82296;SDS011;71899;51.992;8.648;2023-12-20T13:49:02;10.77;;;3.40;;
82296;SDS011;71899;51.992;8.648;2023-12-20T13:51:27;11.77;;;3.28;;
82296;SDS011;71899;51.992;8.648;2023-12-20T13:53:52;13.48;;;2.75;;
82296;SDS011;71899;51.992;8.648;2023-12-20T13:56:18;6.80;;;2.50;;
82296;SDS011;71899;51.992;8.648;2023-12-20T13:58:45;12.15;;;2.47;;
82296;SDS011;71899;51.992;8.648;2023-12-20T14:01:11;11.20;;;2.45;;
82296;SDS011;71899;51.992;8.648;2023-12-20T14:03:37;6.13;;;1.85;;
82296;SDS011;71899;51.992;8.648;2023-12-20T14:06:02;8.90;;;4.22;;
82296;SDS011;71899;51.992;8.648;2023-12-20T14:08:27;7.18;;;1.73;;
82296;SDS011;71899;51.992;8.648;2023-12-20T14:10:53;18.05;;;2.70;;
82296;SDS011;71899;51.992;8.648;2023-12-20T14:13:18;8.15;;;2.13;;
82296;SDS011;71899;51.992;8.648;2023-12-20T14:15:44;7.40;;;1.90;;
82296;SDS011;71899;51.992;8.648;2023-12-20T14:18:09;12.70;;;2.38;;
82296;SDS011;71899;51.992;8.648;2023-12-20T14:20:35;5.85;;;2.42;;
82296;SDS011;71899;51.992;8.648;2023-12-20T14:23:04;4.68;;;2.17;;
82296;SDS011;71899;51.992;8.648;2023-12-20T14:25:29;8.30;;;2.65;;
82296;SDS011;71899;51.992;8.648;2023-12-20T14:27:55;10.10;;;2.22;;
82296;SDS011;71899;51.992;8.648;2023-12-20T14:30:21;5.07;;;1.95;;